Naas, Ireland
Current Conditions -  °F | °C
As of 9:00 PM on Monday 20 Oct 2014 (Local Time) from EIME Reporting Station
Broken Clouds Broken Clouds  
Wind Chill: 55°   Ceiling: 2800
Heat Index: 55°   Visibility: 6mi
Dew Point: 50°   Wind: 28mph
Humidity: 82%   Direction: 210°SSW
Pressure: 29.53"   Gusts: 39mph
Location:  53.22°N, 6.68°W
Report Text: EIME 202100Z 21024G34KT 9999 FEW016 BKN028 BKN080 13/10 Q1000
Loading
Personal Weather Stations






























Interactive Weather Map
Tropical Storm Tracking
New forecast layout! Learn more

10-Day Weather Forecast

Advertisements
Track Severe Weather on mobile